Sibiu, Romania
Current Conditions -  °F | °C
As of 5:00 AM on Sunday 21 Dec 2014 (Local Time) from LRSB Reporting Station
Light Rain Light Rain  
Wind Chill: 29°   Ceiling: Unl
Heat Index: 37°   Visibility: 6mi
Dew Point: 32°   Wind: 14mph
Humidity: 81%   Direction: 310°NW
Pressure: 30.03"   Gusts: NA
Location:  45.79°N, 24.13°E
Report Text: LRSB 210200Z 31012KT 9999 -RA FEW040 SCT055 03/M00 Q1017
Loading
Personal Weather Stations






























Interactive Weather Map New forecast layout! Learn more

10-Day Weather Forecast

Advertisements
Track Severe Weather on mobile